Time;durP1;ratioP1;P1;durP2;ratioP2;P2;SDS_P1;SDS_P2;PMS_P1;PMS_P2;Temp;Humidity;BMP_temperature;BMP_pressure;BME280_temperature;BME280_humidity;BME280_pressure;Samples;Min_cycle;Max_cycle;Signal;HPM_P1;HPM_P2
2021/11/04 00:02:11;;;;;;;25.15;10.45;;;14.90;99.90;;;;;;5044932;28;20052;-62
2021/11/04 00:04:38;;;;;;;24.75;9.75;;;;;;;;;;5053813;28;20114;-62
2021/11/04 00:07:13;;;;;;;20.58;8.15;;;15.80;99.90;;;;;;5053896;28;20027;-63
2021/11/04 00:09:40;;;;;;;27.30;9.02;;;15.00;99.90;;;;;;5054002;28;20053;-63
2021/11/04 00:12:06;;;;;;;28.17;8.68;;;14.90;99.90;;;;;;5053874;28;20033;-63
2021/11/04 00:14:33;;;;;;;23.33;7.93;;;15.10;99.90;;;;;;5052534;28;20032;-63
2021/11/04 00:16:58;;;;;;;24.02;8.07;;;15.20;99.90;;;;;;5053694;28;20466;-63
2021/11/04 00:19:25;;;;;;;21.70;7.28;;;;;;;;;;5052394;28;20033;-63
2021/11/04 00:21:51;;;;;;;19.92;8.90;;;15.10;99.90;;;;;;5053727;28;20021;-63
2021/11/04 00:24:17;;;;;;;29.02;8.15;;;15.00;99.90;;;;;;5053417;28;20461;-62
2021/11/04 00:26:43;;;;;;;16.45;6.63;;;14.90;99.90;;;;;;5052403;28;20560;-63
2021/11/04 00:29:09;;;;;;;26.92;6.95;;;15.00;99.90;;;;;;5053614;28;20036;-63
2021/11/04 00:31:35;;;;;;;19.45;6.70;;;15.00;99.90;;;;;;5052798;28;20102;-62
2021/11/04 00:34:01;;;;;;;19.45;6.32;;;15.00;99.90;;;;;;5053636;28;20033;-63
2021/11/04 00:36:28;;;;;;;21.95;6.65;;;15.10;99.90;;;;;;5053479;28;20108;-62
2021/11/04 00:38:54;;;;;;;18.05;6.38;;;;;;;;;;5053572;28;20457;-63
2021/11/04 00:41:20;;;;;;;17.80;5.60;;;;;;;;;;5053476;28;20053;-63
2021/11/04 00:43:46;;;;;;;18.30;6.50;;;;;;;;;;5053416;28;20083;-63
2021/11/04 00:46:13;;;;;;;15.48;7.03;;;15.20;99.90;;;;;;5053265;28;20159;-63
2021/11/04 00:48:39;;;;;;;15.63;6.43;;;15.20;99.90;;;;;;5053365;28;20028;-63
2021/11/04 00:51:05;;;;;;;18.75;6.13;;;15.30;99.90;;;;;;5053094;28;20108;-63
2021/11/04 00:53:31;;;;;;;16.33;6.57;;;15.00;99.90;;;;;;5053300;28;20031;-63
2021/11/04 00:56:00;;;;;;;17.38;6.15;;;15.30;99.90;;;;;;5053184;28;20820;-63
2021/11/04 00:58:26;;;;;;;14.65;5.90;;;15.40;99.90;;;;;;5053206;28;20465;-62
2021/11/04 01:00:52;;;;;;;22.45;7.55;;;15.40;99.90;;;;;;5052376;28;20033;-63
2021/11/04 01:03:18;;;;;;;26.55;10.27;;;15.40;99.90;;;;;;5053212;28;20033;-63
2021/11/04 01:05:44;;;;;;;19.77;8.95;;;15.50;99.90;;;;;;5052776;28;20043;-63
2021/11/04 01:08:10;;;;;;;20.92;8.70;;;15.90;99.90;;;;;;5053103;28;20033;-63
2021/11/04 01:10:36;;;;;;;12.63;5.68;;;15.60;99.90;;;;;;5051773;28;20036;-63
2021/11/04 01:13:02;;;;;;;13.63;5.57;;;15.60;99.90;;;;;;5053039;28;20034;-62
2021/11/04 01:15:28;;;;;;;14.85;5.47;;;15.60;99.90;;;;;;5053013;28;20028;-63
2021/11/04 01:17:56;;;;;;;13.02;4.85;;;15.60;99.90;;;;;;5053004;28;20033;-63
2021/11/04 01:20:22;;;;;;;13.23;4.90;;;15.60;99.90;;;;;;5052923;28;20029;-63
2021/11/04 01:22:48;;;;;;;12.25;4.63;;;;;;;;;;5052930;28;20431;-63
2021/11/04 01:25:14;;;;;;;12.13;4.63;;;15.50;99.90;;;;;;5052807;28;20025;-63
2021/11/04 01:27:41;;;;;;;11.32;4.53;;;;;;;;;;5052862;28;20079;-63
2021/11/04 01:30:08;;;;;;;11.35;4.72;;;15.70;99.90;;;;;;5052722;28;20057;-63
2021/11/04 01:32:34;;;;;;;12.18;4.70;;;15.70;99.90;;;;;;5052827;28;20540;-63
2021/11/04 01:35:01;;;;;;;8.07;3.92;;;15.70;99.90;;;;;;5051564;28;20113;-63
2021/11/04 01:37:27;;;;;;;12.45;5.25;;;15.70;99.90;;;;;;5052560;28;20040;-63
2021/11/04 01:39:53;;;;;;;11.50;4.63;;;15.70;99.90;;;;;;5052748;28;20112;-62
2021/11/04 01:42:19;;;;;;;10.30;4.20;;;15.70;99.90;;;;;;5051430;28;20531;-63
2021/11/04 01:44:46;;;;;;;8.88;4.28;;;15.70;99.90;;;;;;5052952;28;20366;-63
2021/11/04 01:47:13;;;;;;;11.73;4.03;;;15.70;99.90;;;;;;5051308;28;20025;-62
2021/11/04 01:49:41;;;;;;;12.00;4.53;;;15.70;99.90;;;;;;5052700;28;20029;-63
2021/11/04 01:52:08;;;;;;;8.95;4.03;;;15.70;99.90;;;;;;5052673;28;20044;-63
2021/11/04 01:54:34;;;;;;;11.75;4.75;;;15.70;99.90;;;;;;5051330;28;20476;-62
2021/11/04 01:57:00;;;;;;;11.93;5.38;;;15.80;99.90;;;;;;5052552;28;20119;-63
2021/11/04 01:59:26;;;;;;;9.90;4.70;;;15.80;99.90;;;;;;5052618;28;20025;-63
2021/11/04 02:02:08;;;;;;;12.20;5.07;;;15.80;99.90;;;;;;5051254;28;20029;-63
2021/11/04 02:04:44;;;;;;;12.48;5.38;;;15.70;99.90;;;;;;5052936;28;20028;-64
2021/11/04 02:07:37;;;;;;;10.40;5.30;;;15.90;99.90;;;;;;5052406;28;20040;-63
2021/11/04 02:10:31;;;;;;;8.88;3.88;;;15.90;99.90;;;;;;5052532;28;20032;-64
2021/11/04 02:13:06;;;;;;;11.10;4.07;;;15.90;99.90;;;;;;5054990;28;20029;-64
2021/11/04 02:15:36;;;;;;;7.88;3.65;;;16.00;99.90;;;;;;5056276;28;20113;-63
2021/11/04 02:18:07;;;;;;;7.85;4.18;;;15.90;99.90;;;;;;5056178;28;20382;-63
2021/11/04 02:21:00;;;;;;;9.35;3.85;;;16.00;99.90;;;;;;5056184;28;20033;-63
2021/11/04 02:23:54;;;;;;;10.55;5.00;;;16.00;99.90;;;;;;5056079;28;20071;-63
2021/11/04 02:26:22;;;;;;;9.35;3.67;;;16.10;99.90;;;;;;5044703;28;20045;-63
2021/11/04 02:28:48;;;;;;;10.13;3.65;;;16.10;99.90;;;;;;5055953;28;20029;-64
2021/11/04 02:31:15;;;;;;;9.90;3.60;;;16.10;99.90;;;;;;5055865;28;20052;-64
2021/11/04 02:33:43;;;;;;;11.63;3.92;;;16.10;99.90;;;;;;5055814;28;20102;-63
2021/11/04 02:36:09;;;;;;;8.60;4.20;;;16.00;99.90;;;;;;5055832;28;20079;-63
2021/11/04 02:38:36;;;;;;;16.92;5.63;;;16.10;99.90;;;;;;5054487;28;20120;-63
2021/11/04 02:41:04;;;;;;;18.05;6.28;;;16.10;99.90;;;;;;5055721;28;20025;-63
2021/11/04 02:43:32;;;;;;;11.13;5.00;;;16.10;99.90;;;;;;5055684;28;20104;-63
2021/11/04 02:46:00;;;;;;;13.25;4.72;;;16.10;99.90;;;;;;5055561;28;20041;-63
2021/11/04 02:48:28;;;;;;;16.00;5.35;;;16.10;99.90;;;;;;5055899;28;20529;-63
2021/11/04 02:50:55;;;;;;;13.48;4.07;;;16.00;99.90;;;;;;5054266;28;20025;-63
2021/11/04 02:53:23;;;;;;;13.95;5.13;;;16.00;99.90;;;;;;5054219;28;20489;-63
2021/11/04 02:55:50;;;;;;;9.13;3.42;;;16.10;99.90;;;;;;5054132;28;20036;-63
2021/11/04 02:58:17;;;;;;;10.65;4.15;;;16.10;99.90;;;;;;5055494;28;20052;-63
2021/11/04 03:00:46;;;;;;;12.85;3.53;;;16.00;99.90;;;;;;5055318;28;20029;-63
2021/11/04 03:03:12;;;;;;;13.00;5.00;;;16.10;99.90;;;;;;5054056;28;20025;-63
2021/11/04 03:05:38;;;;;;;21.98;6.43;;;16.20;99.90;;;;;;5053846;28;20040;-63
2021/11/04 03:08:05;;;;;;;12.60;5.93;;;16.10;99.90;;;;;;5055248;28;20029;-63
2021/11/04 03:10:31;;;;;;;16.40;6.53;;;16.20;99.90;;;;;;5055186;28;20351;-63
2021/11/04 03:12:56;;;;;;;19.88;6.03;;;16.20;99.90;;;;;;5054808;28;20495;-63
2021/11/04 03:15:23;;;;;;;18.40;6.13;;;16.20;99.90;;;;;;5055108;28;20065;-63
2021/11/04 03:17:52;;;;;;;11.30;4.57;;;16.30;99.90;;;;;;5054999;28;20025;-63
2021/11/04 03:20:20;;;;;;;5.82;3.45;;;16.30;99.90;;;;;;5055033;28;20044;-63
2021/11/04 03:22:47;;;;;;;11.52;3.85;;;16.40;99.90;;;;;;5054031;28;20064;-64
2021/11/04 03:25:15;;;;;;;11.85;3.17;;;16.40;99.90;;;;;;5054898;28;20449;-63
2021/11/04 03:27:44;;;;;;;13.07;3.30;;;16.40;99.90;;;;;;5054834;28;20420;-63
2021/11/04 03:30:12;;;;;;;7.47;2.63;;;16.60;99.90;;;;;;5053277;28;20029;-64
2021/11/04 03:32:39;;;;;;;7.05;3.05;;;16.60;99.90;;;;;;5054814;28;20104;-63
2021/11/04 03:35:09;;;;;;;9.10;3.05;;;16.60;99.90;;;;;;5054734;28;20021;-64
2021/11/04 03:37:39;;;;;;;12.63;3.17;;;16.70;99.90;;;;;;5053397;28;20115;-63
2021/11/04 03:40:06;;;;;;;12.23;3.28;;;16.70;99.90;;;;;;5054356;28;20126;-64
2021/11/04 03:42:33;;;;;;;14.98;3.70;;;16.80;99.90;;;;;;5054590;28;20025;-63
2021/11/04 03:44:59;;;;;;;10.85;3.30;;;16.80;99.90;;;;;;5054524;28;20372;-63
2021/11/04 03:47:29;;;;;;;8.52;3.75;;;16.80;99.90;;;;;;5054393;28;20029;-63
2021/11/04 03:49:57;;;;;;;14.23;3.58;;;16.90;99.90;;;;;;5054504;28;20029;-63
2021/11/04 03:52:23;;;;;;;9.25;3.60;;;16.90;99.90;;;;;;5054380;28;20040;-63
2021/11/04 03:54:50;;;;;;;12.77;3.45;;;16.80;99.90;;;;;;5054331;28;20372;-63
2021/11/04 03:57:18;;;;;;;12.55;3.53;;;16.80;99.90;;;;;;5054262;28;20037;-63
2021/11/04 03:59:45;;;;;;;10.23;3.03;;;16.80;99.90;;;;;;5053986;28;20428;-64
2021/11/04 04:02:11;;;;;;;17.90;3.60;;;16.80;99.90;;;;;;5054198;28;20055;-63
2021/11/04 04:04:39;;;;;;;14.13;3.33;;;16.90;99.90;;;;;;5054038;28;20056;-63
2021/11/04 04:07:06;;;;;;;22.38;3.20;;;16.40;99.90;;;;;;5052660;28;20114;-63
2021/11/04 04:09:32;;;;;;;9.07;3.55;;;;;;;;;;5054028;28;20029;-64
2021/11/04 04:12:04;;;;;;;9.55;2.80;;;16.90;99.90;;;;;;5054253;28;20029;-63
2021/11/04 04:14:30;;;;;;;15.95;3.75;;;;;;;;;;5054001;28;20024;-63
2021/11/04 04:16:56;;;;;;;17.90;2.90;;;;;;;;;;5054179;28;20375;-64
2021/11/04 04:19:22;;;;;;;17.58;3.28;;;17.00;99.90;;;;;;5053936;28;20485;-63
2021/11/04 04:21:49;;;;;;;8.40;3.17;;;17.00;99.90;;;;;;5053556;28;20057;-64
2021/11/04 04:24:17;;;;;;;8.93;2.88;;;17.00;99.90;;;;;;5053791;28;20032;-63
2021/11/04 04:26:43;;;;;;;13.73;3.03;;;17.00;99.90;;;;;;5053703;28;20068;-63
2021/11/04 04:29:09;;;;;;;12.15;3.30;;;16.90;99.90;;;;;;5052354;28;20106;-64
2021/11/04 04:31:35;;;;;;;7.70;3.58;;;17.00;99.90;;;;;;5053526;28;20049;-63
2021/11/04 04:34:01;;;;;;;12.32;3.42;;;17.10;99.90;;;;;;5053246;28;20025;-63
2021/11/04 04:36:27;;;;;;;11.43;3.28;;;17.10;99.90;;;;;;5053649;28;20028;-63
2021/11/04 04:38:54;;;;;;;10.60;3.83;;;17.10;99.90;;;;;;5053287;28;20389;-63
2021/11/04 04:41:20;;;;;;;14.98;3.08;;;17.10;99.90;;;;;;5053511;28;20025;-63
2021/11/04 04:43:46;;;;;;;13.60;3.10;;;17.00;99.90;;;;;;5053468;28;20035;-63
2021/11/04 04:46:12;;;;;;;10.32;3.10;;;17.00;99.90;;;;;;5052027;28;20037;-63
2021/11/04 04:48:38;;;;;;;11.07;3.40;;;17.00;99.90;;;;;;5053322;28;20021;-63
2021/11/04 04:51:05;;;;;;;8.98;3.00;;;;;;;;;;5053704;28;20043;-63
2021/11/04 04:53:30;;;;;;;10.32;3.35;;;16.90;99.90;;;;;;5053249;28;20028;-63
2021/11/04 04:55:56;;;;;;;7.50;3.55;;;16.90;99.90;;;;;;5053245;28;20115;-63
2021/11/04 04:58:22;;;;;;;8.07;2.80;;;17.00;99.90;;;;;;5053232;28;20083;-63
2021/11/04 05:00:48;;;;;;;9.50;2.58;;;16.90;99.90;;;;;;5053164;28;20020;-63
2021/11/04 05:03:14;;;;;;;12.15;3.53;;;17.00;99.90;;;;;;5051864;28;20108;-63
2021/11/04 05:05:40;;;;;;;10.30;2.88;;;16.90;99.90;;;;;;5053296;28;20044;-63
2021/11/04 05:08:06;;;;;;;8.77;3.13;;;;;;;;;;5053049;28;20470;-63
2021/11/04 05:10:32;;;;;;;9.80;2.63;;;;;;;;;;5053267;28;20025;-63
2021/11/04 05:12:58;;;;;;;8.75;2.60;;;16.80;99.90;;;;;;5052946;28;20470;-63
2021/11/04 05:15:25;;;;;;;6.95;2.78;;;;;;;;;;5051671;28;20037;-63
2021/11/04 05:17:51;;;;;;;11.65;2.75;;;;;;;;;;5050239;28;20025;-63
2021/11/04 05:20:17;;;;;;;11.90;3.20;;;;;;;;;;5052847;28;20493;-63
2021/11/04 05:22:43;;;;;;;13.90;2.85;;;;;;;;;;5052581;28;20021;-63
2021/11/04 05:25:09;;;;;;;13.82;3.30;;;;;;;;;;5052815;28;20025;-63
2021/11/04 05:27:35;;;;;;;14.45;2.90;;;17.10;99.90;;;;;;5052757;28;20052;-63
2021/11/04 05:30:04;;;;;;;10.25;2.72;;;17.30;99.90;;;;;;5052752;28;20066;-63
2021/11/04 05:32:30;;;;;;;9.00;2.90;;;17.20;99.90;;;;;;5052275;28;20056;-63
2021/11/04 05:34:56;;;;;;;15.70;3.80;;;17.30;99.90;;;;;;5052456;28;20033;-63
2021/11/04 05:37:22;;;;;;;13.25;3.42;;;17.30;99.90;;;;;;5052697;28;20040;-63
2021/11/04 05:39:48;;;;;;;13.32;3.40;;;17.30;99.90;;;;;;5052821;28;20037;-63
2021/11/04 05:42:14;;;;;;;16.90;4.00;;;17.40;99.80;;;;;;5051386;28;20056;-63
2021/11/04 05:44:40;;;;;;;20.38;4.43;;;17.40;99.80;;;;;;5051340;28;20025;-63
2021/11/04 05:47:06;;;;;;;21.02;4.93;;;17.50;99.70;;;;;;5054233;28;20548;-63
2021/11/04 05:49:32;;;;;;;17.35;5.00;;;17.50;99.30;;;;;;5056580;28;20032;-64
2021/11/04 05:51:58;;;;;;;11.55;3.55;;;17.50;99.40;;;;;;5055174;28;20055;-63
2021/11/04 05:54:24;;;;;;;15.43;4.72;;;17.60;99.20;;;;;;5056552;28;20458;-63
2021/11/04 05:56:51;;;;;;;13.63;4.45;;;17.60;99.60;;;;;;5054585;28;20470;-63
2021/11/04 05:59:17;;;;;;;18.83;4.82;;;17.60;99.10;;;;;;5056417;28;20036;-63
2021/11/04 06:01:42;;;;;;;22.33;5.22;;;17.70;98.70;;;;;;5055088;28;20025;-63
2021/11/04 06:04:08;;;;;;;21.30;5.07;;;17.70;98.80;;;;;;5056250;28;20078;-63
2021/11/04 06:06:34;;;;;;;12.95;4.47;;;17.70;99.00;;;;;;5054848;28;20033;-63
2021/11/04 06:09:00;;;;;;;15.68;4.45;;;17.80;98.80;;;;;;5055849;28;20072;-64
2021/11/04 06:11:26;;;;;;;17.05;3.88;;;17.80;99.00;;;;;;5056201;28;20021;-64
2021/11/04 06:13:52;;;;;;;12.95;3.50;;;17.80;98.80;;;;;;5056066;28;20033;-63
2021/11/04 06:16:17;;;;;;;16.70;4.32;;;17.80;98.40;;;;;;5054303;28;20045;-63
2021/11/04 06:18:44;;;;;;;23.90;3.20;;;17.80;98.30;;;;;;5056043;28;20048;-63
2021/11/04 06:21:13;;;;;;;15.35;4.18;;;17.80;98.80;;;;;;5054740;28;20362;-63
2021/11/04 06:23:40;;;;;;;21.52;4.68;;;17.80;98.60;;;;;;5056005;28;20028;-63
2021/11/04 06:26:06;;;;;;;14.63;4.40;;;17.80;98.80;;;;;;5055766;28;20033;-63
2021/11/04 06:28:32;;;;;;;19.13;4.80;;;17.80;98.70;;;;;;5055872;28;20381;-63
2021/11/04 06:30:58;;;;;;;16.02;5.00;;;17.80;98.50;;;;;;5055238;28;20056;-63
2021/11/04 06:33:27;;;;;;;16.13;4.70;;;19.20;99.90;;;;;;5054292;28;20036;-63
2021/11/04 06:35:54;;;;;;;18.27;5.22;;;;;;;;;;5055495;28;20048;-63
2021/11/04 06:38:20;;;;;;;17.98;4.50;;;;;;;;;;5055443;28;20017;-63
2021/11/04 06:40:46;;;;;;;12.20;4.50;;;18.10;98.90;;;;;;5054174;28;20473;-63
2021/11/04 06:43:12;;;;;;;23.08;5.50;;;17.70;98.70;;;;;;5054235;28;20029;-63
2021/11/04 06:45:45;;;;;;;17.15;4.93;;;17.80;98.70;;;;;;5055353;28;20036;-64
2021/11/04 06:48:16;;;;;;;14.93;5.15;;;17.80;98.80;;;;;;5054849;28;20025;-64
2021/11/04 06:50:44;;;;;;;17.63;4.65;;;17.80;98.80;;;;;;5055378;28;20132;-63
2021/11/04 06:53:11;;;;;;;21.48;6.57;;;17.80;98.90;;;;;;5055378;28;20043;-63
2021/11/04 06:55:43;;;;;;;19.23;6.07;;;17.80;99.10;;;;;;5055330;28;20036;-63
2021/11/04 06:58:15;;;;;;;32.95;6.65;;;17.90;98.70;;;;;;5053794;28;20053;-64
2021/11/04 07:00:46;;;;;;;24.58;6.03;;;17.80;98.90;;;;;;5055389;28;20091;-64
2021/11/04 07:03:33;;;;;;;24.23;6.23;;;17.90;99.40;;;;;;5055308;28;20078;-64
2021/11/04 07:06:08;;;;;;;20.20;5.70;;;18.00;99.00;;;;;;5054869;28;20672;-63
2021/11/04 07:08:50;;;;;;;17.45;6.65;;;18.10;99.00;;;;;;5055204;28;20032;-63
2021/11/04 07:11:16;;;;;;;22.75;7.25;;;18.10;98.90;;;;;;5055196;28;20074;-63
2021/11/04 07:13:46;;;;;;;24.95;4.78;;;18.10;99.30;;;;;;5053641;28;20029;-63
2021/11/04 07:16:14;;;;;;;15.98;3.65;;;18.10;99.90;;;;;;5055111;28;20362;-63
2021/11/04 07:18:40;;;;;;;17.90;3.33;;;18.10;99.90;;;;;;5054642;28;20100;-63
2021/11/04 07:21:34;;;;;;;22.92;3.55;;;18.30;99.10;;;;;;5055032;28;20162;-64
2021/11/04 07:24:04;;;;;;;16.05;4.20;;;18.40;99.90;;;;;;5054989;28;20036;-64
2021/11/04 07:26:41;;;;;;;21.23;4.13;;;18.50;99.10;;;;;;5053508;28;20029;-67
2021/11/04 07:29:09;;;;;;;20.95;3.97;;;18.50;99.30;;;;;;5054542;28;20029;-65
2021/11/04 07:31:41;;;;;;;23.98;5.53;;;18.60;98.80;;;;;;5053078;28;20059;-64
2021/11/04 07:34:09;;;;;;;19.35;6.18;;;18.60;98.90;;;;;;5053379;28;20474;-65
2021/11/04 07:36:38;;;;;;;18.77;6.25;;;18.90;99.90;;;;;;5054261;28;20029;-65
2021/11/04 07:39:06;;;;;;;15.50;5.25;;;18.80;98.10;;;;;;5054853;28;20036;-63
2021/11/04 07:41:34;;;;;;;19.40;5.05;;;19.10;97.00;;;;;;5054579;28;20029;-66
2021/11/04 07:44:01;;;;;;;13.57;3.55;;;19.30;96.90;;;;;;5054455;28;20032;-64
2021/11/04 07:46:28;;;;;;;14.48;4.70;;;;;;;;;;5054410;28;20048;-64
2021/11/04 07:48:54;;;;;;;26.35;5.10;;;19.50;96.20;;;;;;5054587;28;20029;-64
2021/11/04 07:51:20;;;;;;;20.73;5.68;;;19.80;95.40;;;;;;5053031;28;20354;-62
2021/11/04 07:53:46;;;;;;;11.85;4.60;;;19.90;95.00;;;;;;5054274;28;20029;-62
2021/11/04 07:56:12;;;;;;;22.55;5.35;;;20.10;94.30;;;;;;5054029;28;20385;-63
2021/11/04 07:58:39;;;;;;;17.42;4.90;;;20.20;94.90;;;;;;5053596;28;20033;-63
2021/11/04 08:01:05;;;;;;;18.98;4.82;;;20.40;94.60;;;;;;5052897;28;20060;-63
2021/11/04 08:03:31;;;;;;;20.50;4.78;;;20.50;94.00;;;;;;5054149;28;20021;-63
2021/11/04 08:05:57;;;;;;;15.27;3.97;;;20.70;93.30;;;;;;5053978;28;20025;-63
2021/11/04 08:08:23;;;;;;;14.15;4.30;;;20.80;93.00;;;;;;5052346;28;20036;-64
2021/11/04 08:10:53;;;;;;;14.43;3.88;;;21.00;92.10;;;;;;5054289;28;20044;-63
2021/11/04 08:13:20;;;;;;;22.23;3.67;;;21.10;91.80;;;;;;5053947;28;20033;-64
2021/11/04 08:15:46;;;;;;;19.90;3.75;;;21.20;91.90;;;;;;5053879;28;20052;-63
2021/11/04 08:18:12;;;;;;;16.30;3.83;;;21.30;92.00;;;;;;5053950;28;20100;-64
2021/11/04 08:20:38;;;;;;;17.58;4.13;;;21.40;91.80;;;;;;5053801;28;20871;-64
2021/11/04 08:23:12;;;;;;;25.38;4.80;;;21.50;91.30;;;;;;5053836;28;20067;-63
2021/11/04 08:25:39;;;;;;;20.23;5.30;;;21.60;91.30;;;;;;5052307;28;20024;-64
2021/11/04 08:28:05;;;;;;;20.45;4.53;;;21.70;90.60;;;;;;5053940;28;20108;-64
2021/11/04 08:30:31;;;;;;;20.67;4.18;;;21.70;91.60;;;;;;5053615;28;20029;-63
2021/11/04 08:32:57;;;;;;;15.43;4.03;;;21.70;90.30;;;;;;5052353;28;20029;-64
2021/11/04 08:35:23;;;;;;;14.50;3.38;;;21.70;90.40;;;;;;5053428;28;20055;-64
2021/11/04 08:37:49;;;;;;;14.80;4.65;;;21.80;90.30;;;;;;5052889;28;20120;-69
2021/11/04 08:40:15;;;;;;;20.73;4.22;;;21.80;90.00;;;;;;5051769;28;20028;-64
2021/11/04 08:42:41;;;;;;;14.48;4.00;;;21.90;89.50;;;;;;5050770;28;20035;-67
2021/11/04 08:45:09;;;;;;;13.93;4.13;;;22.00;99.90;;;;;;5049808;28;20024;-64
2021/11/04 08:47:35;;;;;;;11.60;3.42;;;22.10;98.20;;;;;;5050386;28;20431;-63
2021/11/04 08:50:02;;;;;;;18.20;3.63;;;;;;;;;;5053047;28;20481;-71
2021/11/04 08:52:28;;;;;;;16.52;3.30;;;22.00;88.00;;;;;;5051555;28;20025;-63
2021/11/04 08:54:55;;;;;;;14.43;3.85;;;22.10;99.90;;;;;;5052857;28;20048;-64
2021/11/04 08:57:21;;;;;;;13.02;3.45;;;22.10;94.90;;;;;;5051965;28;20033;-65
2021/11/04 08:59:49;;;;;;;15.32;3.35;;;22.30;95.90;;;;;;5051942;28;20098;-64
2021/11/04 09:02:19;;;;;;;15.50;4.13;;;22.40;87.20;;;;;;5051691;28;20029;-65
2021/11/04 09:04:46;;;;;;;18.02;4.97;;;22.60;87.30;;;;;;5052807;28;20105;-64
2021/11/04 09:07:15;;;;;;;16.65;4.40;;;22.60;88.00;;;;;;5052336;28;20485;-64
2021/11/04 09:09:41;;;;;;;16.00;3.97;;;22.80;87.60;;;;;;5052045;28;20457;-65
2021/11/04 09:12:07;;;;;;;12.77;3.13;;;22.90;85.10;;;;;;5052824;28;20044;-64
2021/11/04 09:14:34;;;;;;;11.07;3.67;;;23.10;86.10;;;;;;5052726;28;20035;-64
2021/11/04 09:17:01;;;;;;;17.20;3.88;;;23.40;92.80;;;;;;5052678;28;20082;-65
2021/11/04 09:19:27;;;;;;;14.02;3.55;;;;;;;;;;5052786;28;20068;-64
2021/11/04 09:21:53;;;;;;;17.88;3.55;;;;;;;;;;5052088;28;20029;-64
2021/11/04 09:24:19;;;;;;;20.67;4.30;;;23.60;89.20;;;;;;5052559;28;20028;-63
2021/11/04 09:26:45;;;;;;;21.15;4.50;;;23.80;97.90;;;;;;5052684;28;20037;-62
2021/11/04 09:29:11;;;;;;;11.63;3.83;;;23.70;81.80;;;;;;5051882;28;20386;-63
2021/11/04 09:31:38;;;;;;;14.35;3.83;;;24.60;96.70;;;;;;5051279;28;20049;-63
2021/11/04 09:34:04;;;;;;;22.23;4.00;;;;;;;;;;5051726;28;20040;-62
2021/11/04 09:36:31;;;;;;;20.25;4.70;;;24.70;80.70;;;;;;5052156;28;20485;-62
2021/11/04 09:38:58;;;;;;;10.52;3.58;;;24.30;95.60;;;;;;5052332;28;20032;-62
2021/11/04 09:41:24;;;;;;;13.80;2.97;;;;;;;;;;5050943;28;20060;-63
2021/11/04 09:43:50;;;;;;;12.95;3.28;;;24.20;96.00;;;;;;5052603;28;20032;-63
2021/11/04 09:46:16;;;;;;;21.60;3.35;;;23.90;95.90;;;;;;5052086;28;20039;-63
2021/11/04 09:48:42;;;;;;;16.98;3.20;;;;;;;;;;5052524;28;20029;-66
2021/11/04 09:51:09;;;;;;;16.27;3.38;;;23.80;78.60;;;;;;5052577;28;20021;-64
2021/11/04 09:53:35;;;;;;;17.65;4.13;;;23.80;79.00;;;;;;5051179;28;20022;-64
2021/11/04 09:56:03;;;;;;;18.92;4.05;;;24.00;80.20;;;;;;5052482;28;20025;-64
2021/11/04 09:58:31;;;;;;;16.05;3.53;;;24.10;80.20;;;;;;5052551;28;20064;-65
2021/11/04 10:01:18;;;;;;;20.33;3.95;;;24.20;78.70;;;;;;5051140;28;20025;-65
2021/11/04 10:03:46;;;;;;;16.77;3.40;;;24.20;79.20;;;;;;5052575;28;20032;-64
2021/11/04 10:06:28;;;;;;;9.85;3.72;;;24.20;80.00;;;;;;5052291;28;20041;-65
2021/11/04 10:09:00;;;;;;;16.23;3.65;;;24.10;78.40;;;;;;5052807;28;20404;-65
2021/11/04 10:11:34;;;;;;;10.02;3.47;;;23.90;78.00;;;;;;5052511;28;20021;-65
2021/11/04 10:14:03;;;;;;;20.05;3.55;;;23.80;78.90;;;;;;5051140;28;20108;-63
2021/11/04 10:16:31;;;;;;;15.18;4.30;;;23.80;80.10;;;;;;5051821;28;20031;-65
2021/11/04 10:19:02;;;;;;;9.85;3.88;;;23.80;79.80;;;;;;5052333;28;20037;-66
2021/11/04 10:21:32;;;;;;;15.60;5.35;;;23.80;79.60;;;;;;5050880;28;20120;-69
2021/11/04 10:23:58;;;;;;;14.75;4.53;;;23.70;81.50;;;;;;5052302;28;20102;-63
2021/11/04 10:26:31;;;;;;;20.02;5.65;;;23.60;81.40;;;;;;5051867;28;20182;-63
2021/11/04 10:29:10;;;;;;;14.77;4.40;;;23.50;80.30;;;;;;5049530;28;20111;-63
2021/11/04 10:31:48;;;;;;;16.98;4.57;;;23.50;81.30;;;;;;5051290;28;20079;-63
2021/11/04 10:34:27;;;;;;;20.20;4.95;;;23.70;99.50;;;;;;5053786;28;20029;-63
2021/11/04 10:36:53;;;;;;;16.15;4.63;;;24.00;80.10;;;;;;5054867;28;20537;-63
2021/11/04 10:39:28;;;;;;;9.70;3.97;;;24.70;99.90;;;;;;5055403;28;20033;-62
2021/11/04 10:42:03;;;;;;;19.00;4.72;;;24.40;79.50;;;;;;5055627;28;20021;-62
2021/11/04 10:44:31;;;;;;;20.95;5.30;;;24.20;78.80;;;;;;5055634;28;20041;-62
2021/11/04 10:46:58;;;;;;;23.27;5.25;;;24.20;79.10;;;;;;5055508;28;20469;-62
2021/11/04 10:49:25;;;;;;;19.48;4.78;;;23.90;96.60;;;;;;5055340;28;20029;-62
2021/11/04 10:52:00;;;;;;;18.13;5.22;;;23.90;81.00;;;;;;5054431;28;20028;-62
2021/11/04 10:54:26;;;;;;;12.48;4.38;;;23.80;81.50;;;;;;5055315;28;20074;-62
2021/11/04 10:56:53;;;;;;;21.02;5.38;;;23.80;96.30;;;;;;5055292;28;20052;-62
2021/11/04 10:59:20;;;;;;;20.08;5.47;;;23.60;96.30;;;;;;5055312;28;20025;-62
2021/11/04 11:01:54;;;;;;;15.95;5.45;;;23.80;82.10;;;;;;5055293;28;20025;-62
2021/11/04 11:04:22;;;;;;;17.63;5.45;;;25.20;79.70;;;;;;5055275;28;20103;-61
2021/11/04 11:06:52;;;;;;;14.38;5.10;;;24.50;99.40;;;;;;5053739;28;20040;-62
2021/11/04 11:09:21;;;;;;;22.05;5.53;;;24.20;95.20;;;;;;5055370;28;20032;-62
2021/11/04 11:11:53;;;;;;;24.40;5.97;;;24.10;96.70;;;;;;5053734;28;20485;-62
2021/11/04 11:14:22;;;;;;;16.92;5.10;;;24.00;81.80;;;;;;5055055;28;20114;-62
2021/11/04 11:16:53;;;;;;;14.43;4.22;;;24.20;77.30;;;;;;5055000;28;20171;-62
2021/11/04 11:19:23;;;;;;;8.93;2.50;;;24.20;79.10;;;;;;5054664;28;20481;-62
2021/11/04 11:21:51;;;;;;;14.93;3.60;;;24.50;73.30;;;;;;5053628;28;20118;-62
2021/11/04 11:24:32;;;;;;;8.05;2.17;;;24.70;75.00;;;;;;5054876;28;20021;-62
2021/11/04 11:27:03;;;;;;;10.90;2.42;;;25.10;72.10;;;;;;5053490;28;20044;-63
2021/11/04 11:29:34;;;;;;;13.35;2.88;;;25.40;93.60;;;;;;5054914;28;20481;-62
2021/11/04 11:32:00;;;;;;;18.15;2.55;;;26.00;92.10;;;;;;5054260;28;20041;-62
2021/11/04 11:34:35;;;;;;;10.85;2.38;;;25.90;69.40;;;;;;5054676;28;20171;-62
2021/11/04 11:37:06;;;;;;;14.27;3.10;;;26.20;69.20;;;;;;5054668;28;20033;-62
2021/11/04 11:39:41;;;;;;;11.07;2.97;;;26.10;77.50;;;;;;5054632;28;20032;-62
2021/11/04 11:42:09;;;;;;;14.05;2.30;;;26.10;69.10;;;;;;5054526;28;20171;-62
2021/11/04 11:44:40;;;;;;;16.48;2.53;;;25.90;69.00;;;;;;5053783;28;20056;-62
2021/11/04 11:47:12;;;;;;;18.60;2.65;;;25.60;69.40;;;;;;5054320;28;20036;-62
2021/11/04 11:49:42;;;;;;;12.15;2.65;;;25.40;70.50;;;;;;5054439;28;20036;-62
2021/11/04 11:52:46;;;;;;;5.38;2.45;;;25.10;71.90;;;;;;5054373;28;20040;-62
2021/11/04 11:55:18;;;;;;;10.73;2.85;;;25.00;71.60;;;;;;5054309;28;20040;-63
2021/11/04 11:58:19;;;;;;;13.30;2.65;;;24.70;85.20;;;;;;5054267;28;20029;-62
2021/11/04 12:00:55;;;;;;;8.63;2.25;;;24.80;96.60;;;;;;5054200;28;20115;-62
2021/11/04 12:03:42;;;;;;;9.85;2.53;;;24.60;96.80;;;;;;5065951;28;20036;-64
2021/11/04 12:06:15;;;;;;;14.38;2.97;;;24.70;96.10;;;;;;5074042;28;20046;-62
2021/11/04 12:08:47;;;;;;;11.52;2.28;;;24.50;96.50;;;;;;5074313;28;20073;-62
2021/11/04 12:11:32;;;;;;;;;;;24.30;72.30;;;;;;5073879;28;20020;-62
2021/11/04 12:14:19;;;;;;;21.10;4.25;;;24.10;95.80;;;;;;5073885;28;20361;-62
2021/11/04 12:17:03;;;;;;;14.95;2.70;;;24.20;98.10;;;;;;5074137;28;20055;-62
2021/11/04 12:19:52;;;;;;;19.30;3.55;;;24.00;97.90;;;;;;5073802;28;20025;-62
2021/11/04 12:22:18;;;;;;;20.60;6.18;;;23.80;94.50;;;;;;5073754;28;20082;-62
2021/11/04 12:25:00;;;;;;;22.95;10.80;;;23.60;80.50;;;;;;5073716;28;20025;-62
2021/11/04 12:27:33;;;;;;;29.25;8.65;;;23.40;81.00;;;;;;5073313;28;20439;-62
2021/11/04 12:30:20;;;;;;;19.33;7.63;;;23.50;84.00;;;;;;5072378;28;20024;-63
2021/11/04 12:33:08;;;;;;;20.15;7.25;;;23.10;83.00;;;;;;5073180;28;20048;-63
2021/11/04 12:35:47;;;;;;;26.52;9.32;;;23.00;84.10;;;;;;5073538;28;20029;-62
2021/11/04 12:38:29;;;;;;;21.02;9.07;;;22.20;92.00;;;;;;5073521;28;20026;-62
2021/11/04 12:41:10;;;;;;;15.18;6.50;;;22.80;87.60;;;;;;5071915;28;20021;-63
2021/11/04 12:43:37;;;;;;;;;;;22.60;88.10;;;;;;5073924;28;20101;-63
2021/11/04 12:46:23;;;;;;;21.58;7.07;;;22.40;90.40;;;;;;5073599;28;20357;-62
2021/11/04 12:48:51;;;;;;;15.50;4.80;;;22.20;91.20;;;;;;5072073;28;20376;-62
2021/11/04 12:51:18;;;;;;;18.27;5.70;;;22.00;91.20;;;;;;5072988;28;20024;-62
2021/11/04 12:53:59;;;;;;;15.60;6.18;;;21.90;91.50;;;;;;5072014;28;20021;-62
2021/11/04 12:56:49;;;;;;;15.48;5.97;;;21.70;91.40;;;;;;5073218;28;20465;-62
2021/11/04 12:59:37;;;;;;;28.88;7.50;;;21.60;92.10;;;;;;5073258;28;20029;-62